Time,TemperatureF,DewpointF,PressureIn,WindDirection,WindDirectionDegrees,WindSpeedMPH,WindSpeedGustMPH,Humidity,HourlyPrecipIn,Conditions,Clouds,dailyrainin,SolarRadiationWatts/m^2,SoftwareType,DateUTC
2013-01-17 00:02:00,50.0,22.0,-100.00,NNW,328,5.0,7.0,33,0.00,,,-99.99,1.000000,,2013-01-17 07:02:00,
2013-01-17 00:11:00,50.0,22.0,-100.00,NNW,328,5.0,7.0,33,0.00,,,-99.99,1.000000,,2013-01-17 07:11:00,
2013-01-17 00:42:00,50.0,23.0,-100.00,NNW,340,7.0,11.0,35,0.00,,,0.00,1.000000,,2013-01-17 07:42:00,
2013-01-17 00:52:00,50.0,23.0,-100.00,NNW,340,7.0,11.0,35,0.00,,,0.00,1.000000,,2013-01-17 07:52:00,
2013-01-17 01:02:00,50.0,23.0,-100.00,NNW,340,7.0,11.0,35,0.00,,,0.00,1.000000,,2013-01-17 08:02:00,
2013-01-17 01:11:00,50.0,23.0,-100.00,NNW,340,7.0,11.0,35,0.00,,,0.00,1.000000,,2013-01-17 08:11:00,
2013-01-17 01:43:00,50.0,21.0,-100.00,NNW,340,6.0,9.0,31,0.00,,,0.00,1.000000,,2013-01-17 08:43:00,
2013-01-17 01:53:00,50.0,21.0,-100.00,NNW,340,6.0,9.0,31,0.00,,,0.00,1.000000,,2013-01-17 08:53:00,
2013-01-17 02:02:00,50.0,21.0,-100.00,NNW,340,6.0,9.0,31,0.00,,,0.00,1.000000,,2013-01-17 09:02:00,
2013-01-17 02:12:00,50.0,21.0,-100.00,NNW,340,6.0,9.0,31,0.00,,,0.00,1.000000,,2013-01-17 09:12:00,
2013-01-17 02:33:00,47.0,22.0,-100.00,NNW,335,4.0,8.0,37,0.00,,,-99.99,1.000000,,2013-01-17 09:33:00,
2013-01-17 02:42:00,47.0,22.0,-100.00,NNW,335,4.0,8.0,37,0.00,,,-99.99,1.000000,,2013-01-17 09:42:00,
2013-01-17 02:52:00,47.0,22.0,-100.00,NNW,335,4.0,8.0,37,0.00,,,-99.99,1.000000,,2013-01-17 09:52:00,
2013-01-17 03:02:00,47.0,22.0,-100.00,NNW,335,4.0,8.0,37,0.00,,,-99.99,1.000000,,2013-01-17 10:02:00,
2013-01-17 03:11:00,47.0,22.0,-100.00,NNW,335,4.0,8.0,37,0.00,,,-99.99,1.000000,,2013-01-17 10:11:00,
2013-01-17 03:33:00,49.0,20.0,-100.00,NNW,341,7.0,9.0,32,0.00,,,0.00,1.000000,,2013-01-17 10:33:00,
2013-01-17 03:43:00,49.0,20.0,-100.00,NNW,341,7.0,9.0,32,0.00,,,0.00,1.000000,,2013-01-17 10:43:00,
2013-01-17 03:53:00,49.0,20.0,-100.00,NNW,341,7.0,9.0,32,0.00,,,0.00,1.000000,,2013-01-17 10:53:00,
2013-01-17 04:02:00,49.0,20.0,-100.00,NNW,341,7.0,9.0,32,0.00,,,0.00,1.000000,,2013-01-17 11:02:00,
2013-01-17 04:11:00,49.0,20.0,-100.00,NNW,341,7.0,9.0,32,0.00,,,0.00,1.000000,,2013-01-17 11:11:00,
2013-01-17 04:33:00,51.0,20.0,-100.00,NNW,346,8.0,16.0,29,0.00,,,0.00,1.000000,,2013-01-17 11:33:00,
2013-01-17 04:43:00,51.0,20.0,-100.00,NNW,346,8.0,16.0,29,0.00,,,0.00,1.000000,,2013-01-17 11:43:00,
2013-01-17 04:53:00,51.0,20.0,-100.00,NNW,346,8.0,16.0,29,0.00,,,0.00,1.000000,,2013-01-17 11:53:00,
2013-01-17 05:02:00,51.0,20.0,-100.00,NNW,346,8.0,16.0,29,0.00,,,0.00,1.000000,,2013-01-17 12:02:00,
2013-01-17 05:12:00,51.0,20.0,-100.00,NNW,346,8.0,16.0,29,0.00,,,0.00,1.000000,,2013-01-17 12:12:00,
2013-01-17 05:33:00,52.0,21.0,-100.00,NNW,347,6.0,14.0,29,0.00,,,0.00,1.000000,,2013-01-17 12:33:00,
2013-01-17 05:43:00,52.0,21.0,-100.00,NNW,347,6.0,14.0,29,0.00,,,0.00,1.000000,,2013-01-17 12:43:00,
2013-01-17 05:53:00,52.0,21.0,-100.00,NNW,347,6.0,14.0,29,0.00,,,0.00,1.000000,,2013-01-17 12:53:00,
2013-01-17 06:03:00,52.0,21.0,-100.00,NNW,347,6.0,14.0,29,0.00,,,0.00,1.000000,,2013-01-17 13:03:00,
2013-01-17 06:12:00,52.0,21.0,-100.00,NNW,347,6.0,14.0,29,0.00,,,0.00,1.000000,,2013-01-17 13:12:00,
2013-01-17 06:33:00,51.0,19.0,-100.00,North,358,6.0,9.0,28,0.00,,,0.00,1.000000,,2013-01-17 13:33:00,
2013-01-17 06:43:00,51.0,19.0,-100.00,North,358,6.0,9.0,28,0.00,,,0.00,1.000000,,2013-01-17 13:43:00,
2013-01-17 06:53:00,51.0,19.0,-100.00,North,358,6.0,9.0,28,0.00,,,0.00,1.000000,,2013-01-17 13:53:00,
2013-01-17 07:03:00,51.0,19.0,-100.00,North,358,6.0,9.0,28,0.00,,,0.00,1.000000,,2013-01-17 14:03:00,
2013-01-17 07:12:00,51.0,19.0,-100.00,North,358,6.0,9.0,28,0.00,,,0.00,1.000000,,2013-01-17 14:12:00,
2013-01-17 07:33:00,51.0,20.0,-100.00,NNE,13,8.0,12.0,29,0.00,,,0.00,1.000000,,2013-01-17 14:33:00,
2013-01-17 07:43:00,51.0,20.0,-100.00,NNE,13,8.0,12.0,29,0.00,,,0.00,1.000000,,2013-01-17 14:43:00,
2013-01-17 07:53:00,51.0,20.0,-100.00,NNE,13,8.0,12.0,29,0.00,,,0.00,1.000000,,2013-01-17 14:53:00,
2013-01-17 08:03:00,51.0,20.0,-100.00,NNE,13,8.0,12.0,29,0.00,,,0.00,1.000000,,2013-01-17 15:03:00,
2013-01-17 08:12:00,51.0,20.0,-100.00,NNE,13,8.0,12.0,29,0.00,,,0.00,1.000000,,2013-01-17 15:12:00,
2013-01-17 08:33:00,53.0,19.0,-100.00,NNE,20,13.0,21.0,26,0.00,,,0.00,20.000000,,2013-01-17 15:33:00,
2013-01-17 08:43:00,53.0,19.0,-100.00,NNE,20,13.0,21.0,26,0.00,,,0.00,20.000000,,2013-01-17 15:43:00,
2013-01-17 08:53:00,53.0,19.0,-100.00,NNE,20,13.0,21.0,26,0.00,,,0.00,20.000000,,2013-01-17 15:53:00,
2013-01-17 09:02:00,53.0,19.0,-100.00,NNE,20,13.0,21.0,26,0.00,,,0.00,20.000000,,2013-01-17 16:02:00,
2013-01-17 09:12:00,53.0,19.0,-100.00,NNE,20,13.0,21.0,26,0.00,,,0.00,20.000000,,2013-01-17 16:12:00,
2013-01-17 09:44:00,56.0,19.0,-100.00,North,10,12.0,19.0,23,0.00,,,0.00,184.000000,,2013-01-17 16:44:00,
2013-01-17 09:53:00,56.0,19.0,-100.00,North,10,12.0,19.0,23,0.00,,,0.00,184.000000,,2013-01-17 16:53:00,
2013-01-17 10:02:00,56.0,19.0,-100.00,North,10,12.0,19.0,23,0.00,,,0.00,184.000000,,2013-01-17 17:02:00,
2013-01-17 10:12:00,56.0,19.0,-100.00,North,10,12.0,19.0,23,0.00,,,0.00,184.000000,,2013-01-17 17:12:00,
2013-01-17 10:33:00,60.0,19.0,-100.00,North,9,15.0,23.0,20,0.00,,,0.00,371.000000,,2013-01-17 17:33:00,
2013-01-17 10:43:00,60.0,19.0,-100.00,North,9,15.0,23.0,20,0.00,,,0.00,371.000000,,2013-01-17 17:43:00,
2013-01-17 10:53:00,60.0,19.0,-100.00,North,9,15.0,23.0,20,0.00,,,0.00,371.000000,,2013-01-17 17:53:00,
2013-01-17 11:03:00,60.0,19.0,-100.00,North,9,15.0,23.0,20,0.00,,,0.00,371.000000,,2013-01-17 18:03:00,
2013-01-17 11:12:00,60.0,19.0,-100.00,North,9,15.0,23.0,20,0.00,,,0.00,371.000000,,2013-01-17 18:12:00,
2013-01-17 11:34:00,62.0,18.0,-100.00,NNE,18,16.0,24.0,18,0.00,,,0.00,530.000000,,2013-01-17 18:34:00,
2013-01-17 11:44:00,62.0,18.0,-100.00,NNE,18,16.0,24.0,18,0.00,,,0.00,530.000000,,2013-01-17 18:44:00,
2013-01-17 11:53:00,62.0,18.0,-100.00,NNE,18,16.0,24.0,18,0.00,,,0.00,530.000000,,2013-01-17 18:53:00,
2013-01-17 12:03:00,62.0,18.0,-100.00,NNE,18,16.0,24.0,18,0.00,,,0.00,530.000000,,2013-01-17 19:03:00,
2013-01-17 12:12:00,62.0,18.0,-100.00,NNE,18,16.0,24.0,18,0.00,,,0.00,530.000000,,2013-01-17 19:12:00,
2013-01-17 12:43:00,64.0,18.0,-100.00,North,10,16.0,23.0,17,0.00,,,0.00,634.000000,,2013-01-17 19:43:00,
2013-01-17 12:53:00,64.0,18.0,-100.00,North,10,16.0,23.0,17,0.00,,,0.00,634.000000,,2013-01-17 19:53:00,
2013-01-17 13:02:00,64.0,18.0,-100.00,North,10,16.0,23.0,17,0.00,,,0.00,634.000000,,2013-01-17 20:02:00,
2013-01-17 13:12:00,64.0,18.0,-100.00,North,10,16.0,23.0,17,0.00,,,0.00,634.000000,,2013-01-17 20:12:00,
2013-01-17 13:43:00,66.0,19.0,-100.00,NNE,13,14.0,22.0,16,0.00,,,-99.99,675.000000,,2013-01-17 20:43:00,
2013-01-17 13:53:00,66.0,19.0,-100.00,NNE,13,14.0,22.0,16,0.00,,,-99.99,675.000000,,2013-01-17 20:53:00,
2013-01-17 14:02:00,66.0,19.0,-100.00,NNE,13,14.0,22.0,16,0.00,,,-99.99,675.000000,,2013-01-17 21:02:00,
2013-01-17 14:12:00,66.0,19.0,-100.00,NNE,13,14.0,22.0,16,0.00,,,-99.99,675.000000,,2013-01-17 21:12:00,
2013-01-17 14:34:00,68.0,20.0,-100.00,North,3,11.0,21.0,16,0.00,,,0.00,646.000000,,2013-01-17 21:34:00,
2013-01-17 14:43:00,68.0,20.0,-100.00,North,3,11.0,21.0,16,0.00,,,0.00,646.000000,,2013-01-17 21:43:00,
2013-01-17 14:53:00,68.0,20.0,-100.00,North,3,11.0,21.0,16,0.00,,,0.00,646.000000,,2013-01-17 21:53:00,
2013-01-17 15:03:00,68.0,20.0,-100.00,North,3,11.0,21.0,16,0.00,,,0.00,646.000000,,2013-01-17 22:03:00,
2013-01-17 15:12:00,68.0,20.0,-100.00,North,3,11.0,21.0,16,0.00,,,0.00,646.000000,,2013-01-17 22:12:00,
2013-01-17 15:33:00,69.0,19.0,-100.00,North,9,11.0,19.0,15,0.00,,,0.00,551.000000,,2013-01-17 22:33:00,
2013-01-17 15:43:00,69.0,19.0,-100.00,North,9,11.0,19.0,15,0.00,,,0.00,551.000000,,2013-01-17 22:43:00,
2013-01-17 15:52:00,69.0,19.0,-100.00,North,9,11.0,19.0,15,0.00,,,0.00,551.000000,,2013-01-17 22:52:00,
2013-01-17 16:02:00,69.0,19.0,-100.00,North,9,11.0,19.0,15,0.00,,,0.00,551.000000,,2013-01-17 23:02:00,
2013-01-17 16:12:00,69.0,19.0,-100.00,North,9,11.0,19.0,15,0.00,,,0.00,551.000000,,2013-01-17 23:12:00,
2013-01-17 16:43:00,69.0,19.0,-100.00,North,359,10.0,17.0,15,0.00,,,0.00,395.000000,,2013-01-17 23:43:00,
2013-01-17 16:53:00,69.0,19.0,-100.00,North,359,10.0,17.0,15,0.00,,,0.00,395.000000,,2013-01-17 23:53:00,
2013-01-17 17:02:00,69.0,19.0,-100.00,North,359,10.0,17.0,15,0.00,,,0.00,395.000000,,2013-01-18 00:02:00,
2013-01-17 17:12:00,69.0,19.0,-100.00,North,359,10.0,17.0,15,0.00,,,0.00,395.000000,,2013-01-18 00:12:00,
2013-01-17 17:43:00,68.0,20.0,-100.00,North,356,10.0,18.0,16,0.00,,,0.00,192.000000,,2013-01-18 00:43:00,
2013-01-17 17:53:00,68.0,20.0,-100.00,North,356,10.0,18.0,16,0.00,,,0.00,192.000000,,2013-01-18 00:53:00,
2013-01-17 18:02:00,68.0,20.0,-100.00,North,356,10.0,18.0,16,0.00,,,0.00,192.000000,,2013-01-18 01:02:00,
2013-01-17 18:12:00,68.0,20.0,-100.00,North,356,10.0,18.0,16,0.00,,,0.00,192.000000,,2013-01-18 01:12:00,
2013-01-17 18:33:00,64.0,20.0,-100.00,North,353,6.0,15.0,18,0.00,,,0.00,34.000000,,2013-01-18 01:33:00,
2013-01-17 18:43:00,64.0,20.0,-100.00,North,353,6.0,15.0,18,0.00,,,0.00,34.000000,,2013-01-18 01:43:00,
2013-01-17 18:53:00,64.0,20.0,-100.00,North,353,6.0,15.0,18,0.00,,,0.00,34.000000,,2013-01-18 01:53:00,
2013-01-17 19:02:00,64.0,20.0,-100.00,North,353,6.0,15.0,18,0.00,,,0.00,34.000000,,2013-01-18 02:02:00,
2013-01-17 19:12:00,64.0,20.0,-100.00,North,353,6.0,15.0,18,0.00,,,0.00,34.000000,,2013-01-18 02:12:00,
2013-01-17 19:43:00,62.0,19.0,-100.00,North,10,7.0,10.0,19,0.00,,,0.00,1.000000,,2013-01-18 02:43:00,
2013-01-17 19:53:00,62.0,19.0,-100.00,North,10,7.0,10.0,19,0.00,,,0.00,1.000000,,2013-01-18 02:53:00,
2013-01-17 20:02:00,62.0,19.0,-100.00,North,10,7.0,10.0,19,0.00,,,0.00,1.000000,,2013-01-18 03:02:00,
2013-01-17 20:12:00,62.0,19.0,-100.00,North,10,7.0,10.0,19,0.00,,,0.00,1.000000,,2013-01-18 03:12:00,
2013-01-17 20:33:00,61.0,20.0,-100.00,North,10,7.0,11.0,20,0.00,,,0.00,1.000000,,2013-01-18 03:33:00,
2013-01-17 20:43:00,61.0,20.0,-100.00,North,10,7.0,11.0,20,0.00,,,0.00,1.000000,,2013-01-18 03:43:00,
2013-01-17 20:53:00,61.0,20.0,-100.00,North,10,7.0,11.0,20,0.00,,,0.00,1.000000,,2013-01-18 03:53:00,
2013-01-17 21:02:00,61.0,20.0,-100.00,North,10,7.0,11.0,20,0.00,,,0.00,1.000000,,2013-01-18 04:02:00,
2013-01-17 21:12:00,61.0,20.0,-100.00,North,10,7.0,11.0,20,0.00,,,0.00,1.000000,,2013-01-18 04:12:00,
2013-01-17 21:33:00,60.0,19.0,-100.00,NNE,15,8.0,11.0,20,0.00,,,0.00,1.000000,,2013-01-18 04:33:00,
2013-01-17 21:42:00,60.0,19.0,-100.00,NNE,15,8.0,11.0,20,0.00,,,0.00,1.000000,,2013-01-18 04:42:00,
2013-01-17 21:53:00,60.0,19.0,-100.00,NNE,15,8.0,11.0,20,0.00,,,0.00,1.000000,,2013-01-18 04:53:00,
2013-01-17 22:03:00,60.0,19.0,-100.00,NNE,15,8.0,11.0,20,0.00,,,0.00,1.000000,,2013-01-18 05:03:00,
2013-01-17 22:12:00,60.0,19.0,-100.00,NNE,15,8.0,11.0,20,0.00,,,0.00,1.000000,,2013-01-18 05:12:00,
2013-01-17 22:33:00,57.0,17.0,-100.00,NNE,23,5.0,9.0,21,0.00,,,0.00,1.000000,,2013-01-18 05:33:00,
2013-01-17 22:43:00,57.0,17.0,-100.00,NNE,23,5.0,9.0,21,0.00,,,0.00,1.000000,,2013-01-18 05:43:00,
2013-01-17 22:53:00,57.0,17.0,-100.00,NNE,23,5.0,9.0,21,0.00,,,0.00,1.000000,,2013-01-18 05:53:00,
2013-01-17 23:02:00,57.0,17.0,-100.00,NNE,23,5.0,9.0,21,0.00,,,0.00,1.000000,,2013-01-18 06:02:00,
2013-01-17 23:12:00,57.0,17.0,-100.00,NNE,23,5.0,9.0,21,0.00,,,0.00,1.000000,,2013-01-18 06:12:00,
2013-01-17 23:33:00,57.0,16.0,-100.00,North,6,5.0,8.0,20,0.00,,,0.00,1.000000,,2013-01-18 06:33:00,
2013-01-17 23:43:00,57.0,16.0,-100.00,North,6,5.0,8.0,20,0.00,,,0.00,1.000000,,2013-01-18 06:43:00,
2013-01-17 23:52:00,57.0,16.0,-100.00,North,6,5.0,8.0,20,0.00,,,0.00,1.000000,,2013-01-18 06:52:00,